sensor_id;sensor_type;location;lat;lon;timestamp;P1;durP1;ratioP1;P2;durP2;ratioP2
42124;SDS011;27787;44.594;11.046;2023-06-22T00:01:51;19.42;;;9.77;;
42124;SDS011;27787;44.594;11.046;2023-06-22T00:04:35;12.38;;;8.02;;
42124;SDS011;27787;44.594;11.046;2023-06-22T00:07:19;14.52;;;8.52;;
42124;SDS011;27787;44.594;11.046;2023-06-22T00:10:03;14.68;;;7.97;;
42124;SDS011;27787;44.594;11.046;2023-06-22T00:12:47;17.77;;;6.90;;
42124;SDS011;27787;44.594;11.046;2023-06-22T00:15:31;13.40;;;6.30;;
42124;SDS011;27787;44.594;11.046;2023-06-22T00:18:16;12.63;;;6.20;;
42124;SDS011;27787;44.594;11.046;2023-06-22T00:21:00;10.47;;;6.57;;
42124;SDS011;27787;44.594;11.046;2023-06-22T00:23:44;16.98;;;6.93;;
42124;SDS011;27787;44.594;11.046;2023-06-22T00:26:28;13.73;;;6.65;;
42124;SDS011;27787;44.594;11.046;2023-06-22T00:29:12;10.23;;;6.80;;
42124;SDS011;27787;44.594;11.046;2023-06-22T00:31:56;13.52;;;7.10;;
42124;SDS011;27787;44.594;11.046;2023-06-22T00:34:41;14.82;;;6.15;;
42124;SDS011;27787;44.594;11.046;2023-06-22T00:37:25;19.63;;;6.25;;
42124;SDS011;27787;44.594;11.046;2023-06-22T00:40:10;11.15;;;6.50;;
42124;SDS011;27787;44.594;11.046;2023-06-22T00:42:55;11.00;;;5.60;;
42124;SDS011;27787;44.594;11.046;2023-06-22T00:45:40;8.55;;;5.47;;
42124;SDS011;27787;44.594;11.046;2023-06-22T00:48:24;9.25;;;5.75;;
42124;SDS011;27787;44.594;11.046;2023-06-22T00:51:08;16.23;;;5.20;;
42124;SDS011;27787;44.594;11.046;2023-06-22T00:53:54;10.40;;;5.28;;
42124;SDS011;27787;44.594;11.046;2023-06-22T00:56:39;13.35;;;5.68;;
42124;SDS011;27787;44.594;11.046;2023-06-22T00:59:27;10.07;;;5.28;;
42124;SDS011;27787;44.594;11.046;2023-06-22T01:02:11;13.80;;;5.45;;
42124;SDS011;27787;44.594;11.046;2023-06-22T01:04:56;9.70;;;5.07;;
42124;SDS011;27787;44.594;11.046;2023-06-22T01:14:03;17.23;;;5.28;;
42124;SDS011;27787;44.594;11.046;2023-06-22T01:16:35;15.82;;;5.40;;
42124;SDS011;27787;44.594;11.046;2023-06-22T01:22:20;11.73;;;5.40;;
42124;SDS011;27787;44.594;11.046;2023-06-22T01:31:08;11.95;;;5.82;;
42124;SDS011;27787;44.594;11.046;2023-06-22T01:33:59;11.52;;;7.28;;
42124;SDS011;27787;44.594;11.046;2023-06-22T01:36:46;11.63;;;6.65;;
42124;SDS011;27787;44.594;11.046;2023-06-22T01:39:31;13.48;;;7.95;;
42124;SDS011;27787;44.594;11.046;2023-06-22T01:42:16;18.25;;;10.65;;
42124;SDS011;27787;44.594;11.046;2023-06-22T01:45:00;16.77;;;10.52;;
42124;SDS011;27787;44.594;11.046;2023-06-22T01:47:47;21.77;;;13.23;;
42124;SDS011;27787;44.594;11.046;2023-06-22T01:50:32;13.80;;;10.63;;
42124;SDS011;27787;44.594;11.046;2023-06-22T01:53:16;15.43;;;11.90;;
42124;SDS011;27787;44.594;11.046;2023-06-22T01:56:00;17.52;;;11.60;;
42124;SDS011;27787;44.594;11.046;2023-06-22T01:59:02;17.42;;;9.95;;
42124;SDS011;27787;44.594;11.046;2023-06-22T02:01:54;15.13;;;9.20;;
42124;SDS011;27787;44.594;11.046;2023-06-22T02:04:59;13.70;;;9.50;;
42124;SDS011;27787;44.594;11.046;2023-06-22T02:11:02;16.40;;;10.65;;
42124;SDS011;27787;44.594;11.046;2023-06-22T02:13:47;14.38;;;10.35;;
42124;SDS011;27787;44.594;11.046;2023-06-22T02:19:16;17.05;;;10.35;;
42124;SDS011;27787;44.594;11.046;2023-06-22T02:22:02;15.30;;;10.80;;
42124;SDS011;27787;44.594;11.046;2023-06-22T02:24:47;17.10;;;10.63;;
42124;SDS011;27787;44.594;11.046;2023-06-22T02:27:31;16.20;;;9.73;;
42124;SDS011;27787;44.594;11.046;2023-06-22T02:30:15;20.25;;;10.88;;
42124;SDS011;27787;44.594;11.046;2023-06-22T02:35:43;19.00;;;11.35;;
42124;SDS011;27787;44.594;11.046;2023-06-22T02:38:31;18.73;;;11.57;;
42124;SDS011;27787;44.594;11.046;2023-06-22T02:41:19;19.77;;;12.18;;
42124;SDS011;27787;44.594;11.046;2023-06-22T02:44:04;19.65;;;12.48;;
42124;SDS011;27787;44.594;11.046;2023-06-22T02:46:48;19.73;;;11.93;;
42124;SDS011;27787;44.594;11.046;2023-06-22T02:49:34;19.27;;;12.55;;
42124;SDS011;27787;44.594;11.046;2023-06-22T02:52:18;20.10;;;11.77;;
42124;SDS011;27787;44.594;11.046;2023-06-22T02:55:03;25.08;;;13.20;;
42124;SDS011;27787;44.594;11.046;2023-06-22T02:57:48;19.38;;;13.63;;
42124;SDS011;27787;44.594;11.046;2023-06-22T03:00:36;23.23;;;14.18;;
42124;SDS011;27787;44.594;11.046;2023-06-22T03:03:22;23.20;;;13.75;;
42124;SDS011;27787;44.594;11.046;2023-06-22T03:06:06;21.77;;;13.52;;
42124;SDS011;27787;44.594;11.046;2023-06-22T03:08:51;21.77;;;14.40;;
42124;SDS011;27787;44.594;11.046;2023-06-22T03:11:35;28.13;;;14.80;;
42124;SDS011;27787;44.594;11.046;2023-06-22T03:14:20;25.63;;;15.70;;
42124;SDS011;27787;44.594;11.046;2023-06-22T03:17:04;20.83;;;14.43;;
42124;SDS011;27787;44.594;11.046;2023-06-22T03:19:50;23.33;;;14.95;;
42124;SDS011;27787;44.594;11.046;2023-06-22T03:22:35;22.73;;;15.38;;
42124;SDS011;27787;44.594;11.046;2023-06-22T03:25:19;23.25;;;14.75;;
42124;SDS011;27787;44.594;11.046;2023-06-22T03:28:06;26.83;;;15.07;;
42124;SDS011;27787;44.594;11.046;2023-06-22T03:30:50;24.85;;;14.55;;
42124;SDS011;27787;44.594;11.046;2023-06-22T03:33:34;24.35;;;14.50;;
42124;SDS011;27787;44.594;11.046;2023-06-22T03:36:19;23.67;;;13.93;;
42124;SDS011;27787;44.594;11.046;2023-06-22T03:39:04;25.75;;;14.50;;
42124;SDS011;27787;44.594;11.046;2023-06-22T03:41:49;23.20;;;14.13;;
42124;SDS011;27787;44.594;11.046;2023-06-22T03:44:33;24.85;;;14.77;;
42124;SDS011;27787;44.594;11.046;2023-06-22T03:47:19;25.05;;;13.57;;
42124;SDS011;27787;44.594;11.046;2023-06-22T03:50:04;24.67;;;13.85;;
42124;SDS011;27787;44.594;11.046;2023-06-22T03:52:49;23.20;;;14.77;;
42124;SDS011;27787;44.594;11.046;2023-06-22T03:55:36;18.40;;;13.15;;
42124;SDS011;27787;44.594;11.046;2023-06-22T03:58:21;24.23;;;14.60;;
42124;SDS011;27787;44.594;11.046;2023-06-22T04:01:05;22.13;;;14.65;;
42124;SDS011;27787;44.594;11.046;2023-06-22T04:03:50;21.08;;;14.73;;
42124;SDS011;27787;44.594;11.046;2023-06-22T04:06:34;22.30;;;14.80;;
42124;SDS011;27787;44.594;11.046;2023-06-22T04:09:18;20.60;;;13.95;;
42124;SDS011;27787;44.594;11.046;2023-06-22T04:12:03;25.63;;;13.20;;
42124;SDS011;27787;44.594;11.046;2023-06-22T04:14:47;25.83;;;14.02;;
42124;SDS011;27787;44.594;11.046;2023-06-22T04:17:32;21.65;;;13.60;;
42124;SDS011;27787;44.594;11.046;2023-06-22T04:20:16;22.85;;;12.57;;
42124;SDS011;27787;44.594;11.046;2023-06-22T04:23:00;22.08;;;13.52;;
42124;SDS011;27787;44.594;11.046;2023-06-22T04:25:45;24.25;;;12.95;;
42124;SDS011;27787;44.594;11.046;2023-06-22T04:28:29;19.02;;;12.32;;
42124;SDS011;27787;44.594;11.046;2023-06-22T04:31:13;22.33;;;13.55;;
42124;SDS011;27787;44.594;11.046;2023-06-22T04:33:59;23.48;;;12.10;;
42124;SDS011;27787;44.594;11.046;2023-06-22T04:36:49;19.48;;;12.18;;
42124;SDS011;27787;44.594;11.046;2023-06-22T04:39:34;23.00;;;13.25;;
42124;SDS011;27787;44.594;11.046;2023-06-22T04:42:17;26.10;;;14.98;;
42124;SDS011;27787;44.594;11.046;2023-06-22T04:45:02;20.48;;;13.50;;
42124;SDS011;27787;44.594;11.046;2023-06-22T04:47:46;24.30;;;13.63;;
42124;SDS011;27787;44.594;11.046;2023-06-22T04:50:31;24.73;;;14.27;;
42124;SDS011;27787;44.594;11.046;2023-06-22T04:53:15;21.83;;;12.52;;
42124;SDS011;27787;44.594;11.046;2023-06-22T04:55:59;24.00;;;13.10;;
42124;SDS011;27787;44.594;11.046;2023-06-22T04:58:43;16.58;;;11.77;;
42124;SDS011;27787;44.594;11.046;2023-06-22T05:01:27;20.83;;;13.07;;
42124;SDS011;27787;44.594;11.046;2023-06-22T05:04:12;22.27;;;14.40;;
42124;SDS011;27787;44.594;11.046;2023-06-22T05:06:57;17.35;;;13.02;;
42124;SDS011;27787;44.594;11.046;2023-06-22T05:09:41;22.70;;;13.27;;
42124;SDS011;27787;44.594;11.046;2023-06-22T05:12:27;20.95;;;14.10;;
42124;SDS011;27787;44.594;11.046;2023-06-22T05:15:12;21.88;;;13.40;;
42124;SDS011;27787;44.594;11.046;2023-06-22T05:17:56;24.42;;;14.25;;
42124;SDS011;27787;44.594;11.046;2023-06-22T05:20:42;20.02;;;13.70;;
42124;SDS011;27787;44.594;11.046;2023-06-22T05:23:26;21.65;;;13.20;;
42124;SDS011;27787;44.594;11.046;2023-06-22T05:26:10;23.27;;;13.98;;
42124;SDS011;27787;44.594;11.046;2023-06-22T05:28:54;23.38;;;13.90;;
42124;SDS011;27787;44.594;11.046;2023-06-22T05:31:38;24.85;;;13.82;;
42124;SDS011;27787;44.594;11.046;2023-06-22T05:34:24;26.42;;;14.27;;
42124;SDS011;27787;44.594;11.046;2023-06-22T05:37:08;22.20;;;13.88;;
42124;SDS011;27787;44.594;11.046;2023-06-22T05:39:53;49.03;;;15.85;;
42124;SDS011;27787;44.594;11.046;2023-06-22T05:42:38;37.72;;;14.63;;
42124;SDS011;27787;44.594;11.046;2023-06-22T05:45:23;24.15;;;13.57;;
42124;SDS011;27787;44.594;11.046;2023-06-22T05:48:07;27.05;;;11.55;;
42124;SDS011;27787;44.594;11.046;2023-06-22T05:50:51;21.55;;;12.18;;
42124;SDS011;27787;44.594;11.046;2023-06-22T05:53:35;20.25;;;12.07;;
42124;SDS011;27787;44.594;11.046;2023-06-22T05:56:19;25.25;;;13.00;;
42124;SDS011;27787;44.594;11.046;2023-06-22T05:59:03;23.83;;;13.75;;
42124;SDS011;27787;44.594;11.046;2023-06-22T06:01:48;16.75;;;11.70;;
42124;SDS011;27787;44.594;11.046;2023-06-22T06:04:33;16.05;;;11.32;;
42124;SDS011;27787;44.594;11.046;2023-06-22T06:07:18;21.65;;;11.30;;
42124;SDS011;27787;44.594;11.046;2023-06-22T06:10:02;18.73;;;10.20;;
42124;SDS011;27787;44.594;11.046;2023-06-22T06:12:48;16.20;;;9.57;;
42124;SDS011;27787;44.594;11.046;2023-06-22T06:15:34;13.18;;;9.02;;
42124;SDS011;27787;44.594;11.046;2023-06-22T06:18:19;17.15;;;9.60;;
42124;SDS011;27787;44.594;11.046;2023-06-22T06:21:03;17.02;;;9.77;;
42124;SDS011;27787;44.594;11.046;2023-06-22T06:23:47;22.83;;;9.30;;
42124;SDS011;27787;44.594;11.046;2023-06-22T06:26:31;18.70;;;9.27;;
42124;SDS011;27787;44.594;11.046;2023-06-22T06:29:16;15.05;;;9.10;;
42124;SDS011;27787;44.594;11.046;2023-06-22T06:32:00;21.13;;;9.80;;
42124;SDS011;27787;44.594;11.046;2023-06-22T06:34:44;15.63;;;9.50;;
42124;SDS011;27787;44.594;11.046;2023-06-22T06:37:28;17.30;;;8.35;;
42124;SDS011;27787;44.594;11.046;2023-06-22T06:40:13;12.63;;;8.20;;
42124;SDS011;27787;44.594;11.046;2023-06-22T06:42:58;13.27;;;7.80;;
42124;SDS011;27787;44.594;11.046;2023-06-22T06:45:42;13.35;;;8.20;;
42124;SDS011;27787;44.594;11.046;2023-06-22T06:48:26;16.23;;;8.45;;
42124;SDS011;27787;44.594;11.046;2023-06-22T06:51:10;13.40;;;8.00;;
42124;SDS011;27787;44.594;11.046;2023-06-22T06:53:54;13.65;;;7.45;;
42124;SDS011;27787;44.594;11.046;2023-06-22T06:56:38;16.05;;;7.53;;
42124;SDS011;27787;44.594;11.046;2023-06-22T06:59:22;13.27;;;6.65;;
42124;SDS011;27787;44.594;11.046;2023-06-22T07:02:06;19.92;;;7.53;;
42124;SDS011;27787;44.594;11.046;2023-06-22T07:04:50;13.40;;;6.78;;
42124;SDS011;27787;44.594;11.046;2023-06-22T07:07:34;11.20;;;7.00;;
42124;SDS011;27787;44.594;11.046;2023-06-22T07:10:19;13.15;;;7.05;;
42124;SDS011;27787;44.594;11.046;2023-06-22T07:13:03;13.77;;;6.33;;
42124;SDS011;27787;44.594;11.046;2023-06-22T07:15:48;13.10;;;7.20;;
42124;SDS011;27787;44.594;11.046;2023-06-22T07:18:32;14.25;;;7.72;;
42124;SDS011;27787;44.594;11.046;2023-06-22T07:21:16;11.98;;;7.25;;
42124;SDS011;27787;44.594;11.046;2023-06-22T07:24:01;11.02;;;7.10;;
42124;SDS011;27787;44.594;11.046;2023-06-22T07:26:45;13.07;;;6.85;;
42124;SDS011;27787;44.594;11.046;2023-06-22T07:29:31;16.83;;;7.47;;
42124;SDS011;27787;44.594;11.046;2023-06-22T07:32:16;14.38;;;7.47;;
42124;SDS011;27787;44.594;11.046;2023-06-22T07:35:01;12.30;;;7.13;;
42124;SDS011;27787;44.594;11.046;2023-06-22T07:37:45;10.60;;;6.65;;
42124;SDS011;27787;44.594;11.046;2023-06-22T07:40:30;12.52;;;7.47;;
42124;SDS011;27787;44.594;11.046;2023-06-22T07:43:15;11.75;;;6.72;;
42124;SDS011;27787;44.594;11.046;2023-06-22T07:45:59;16.98;;;7.07;;
42124;SDS011;27787;44.594;11.046;2023-06-22T07:48:43;16.85;;;7.72;;
42124;SDS011;27787;44.594;11.046;2023-06-22T07:51:27;16.10;;;7.10;;
42124;SDS011;27787;44.594;11.046;2023-06-22T07:54:12;13.88;;;7.90;;
42124;SDS011;27787;44.594;11.046;2023-06-22T07:56:56;17.88;;;7.25;;
42124;SDS011;27787;44.594;11.046;2023-06-22T07:59:40;13.13;;;6.68;;
42124;SDS011;27787;44.594;11.046;2023-06-22T08:07:58;16.63;;;6.53;;
42124;SDS011;27787;44.594;11.046;2023-06-22T08:10:43;17.35;;;6.38;;
42124;SDS011;27787;44.594;11.046;2023-06-22T08:13:27;15.00;;;6.90;;
42124;SDS011;27787;44.594;11.046;2023-06-22T08:16:11;17.48;;;7.38;;
42124;SDS011;27787;44.594;11.046;2023-06-22T08:18:55;14.18;;;6.40;;
42124;SDS011;27787;44.594;11.046;2023-06-22T08:21:40;14.38;;;6.60;;
42124;SDS011;27787;44.594;11.046;2023-06-22T08:24:24;12.05;;;6.80;;
42124;SDS011;27787;44.594;11.046;2023-06-22T08:27:09;17.73;;;6.80;;
42124;SDS011;27787;44.594;11.046;2023-06-22T08:29:55;11.40;;;5.90;;
42124;SDS011;27787;44.594;11.046;2023-06-22T08:32:42;10.40;;;7.15;;
42124;SDS011;27787;44.594;11.046;2023-06-22T08:35:26;10.70;;;6.00;;
42124;SDS011;27787;44.594;11.046;2023-06-22T08:38:11;14.52;;;6.60;;
42124;SDS011;27787;44.594;11.046;2023-06-22T08:40:59;12.40;;;6.88;;
42124;SDS011;27787;44.594;11.046;2023-06-22T08:46:28;14.38;;;6.55;;
42124;SDS011;27787;44.594;11.046;2023-06-22T08:49:17;15.05;;;6.63;;
42124;SDS011;27787;44.594;11.046;2023-06-22T08:52:00;11.35;;;6.43;;
42124;SDS011;27787;44.594;11.046;2023-06-22T08:54:45;10.02;;;6.22;;
42124;SDS011;27787;44.594;11.046;2023-06-22T09:00:14;16.73;;;6.25;;
42124;SDS011;27787;44.594;11.046;2023-06-22T09:03:01;13.40;;;6.03;;
42124;SDS011;27787;44.594;11.046;2023-06-22T09:05:45;12.65;;;6.78;;
42124;SDS011;27787;44.594;11.046;2023-06-22T09:08:29;18.30;;;7.35;;
42124;SDS011;27787;44.594;11.046;2023-06-22T09:11:14;10.88;;;6.28;;
42124;SDS011;27787;44.594;11.046;2023-06-22T09:13:59;14.18;;;5.97;;
42124;SDS011;27787;44.594;11.046;2023-06-22T09:16:43;11.90;;;6.85;;
42124;SDS011;27787;44.594;11.046;2023-06-22T09:19:27;11.70;;;6.25;;
42124;SDS011;27787;44.594;11.046;2023-06-22T09:22:12;12.93;;;6.10;;
42124;SDS011;27787;44.594;11.046;2023-06-22T09:24:56;13.60;;;7.57;;
42124;SDS011;27787;44.594;11.046;2023-06-22T09:27:40;11.70;;;6.65;;
42124;SDS011;27787;44.594;11.046;2023-06-22T09:30:25;15.23;;;6.43;;
42124;SDS011;27787;44.594;11.046;2023-06-22T09:33:09;15.77;;;6.75;;
42124;SDS011;27787;44.594;11.046;2023-06-22T09:35:53;13.02;;;6.18;;
42124;SDS011;27787;44.594;11.046;2023-06-22T09:38:37;13.40;;;6.55;;
42124;SDS011;27787;44.594;11.046;2023-06-22T09:44:06;15.75;;;6.80;;
42124;SDS011;27787;44.594;11.046;2023-06-22T09:46:50;11.32;;;6.85;;
42124;SDS011;27787;44.594;11.046;2023-06-22T09:49:34;12.18;;;6.97;;
42124;SDS011;27787;44.594;11.046;2023-06-22T09:52:18;12.10;;;6.68;;
42124;SDS011;27787;44.594;11.046;2023-06-22T09:55:03;9.73;;;6.13;;
42124;SDS011;27787;44.594;11.046;2023-06-22T09:57:47;15.75;;;6.32;;
42124;SDS011;27787;44.594;11.046;2023-06-22T10:00:32;13.18;;;6.97;;
42124;SDS011;27787;44.594;11.046;2023-06-22T10:03:16;22.70;;;8.15;;
42124;SDS011;27787;44.594;11.046;2023-06-22T10:06:00;14.88;;;7.60;;
42124;SDS011;27787;44.594;11.046;2023-06-22T10:08:44;16.45;;;8.38;;
42124;SDS011;27787;44.594;11.046;2023-06-22T10:11:28;10.80;;;6.85;;
42124;SDS011;27787;44.594;11.046;2023-06-22T10:14:14;13.57;;;7.13;;
42124;SDS011;27787;44.594;11.046;2023-06-22T10:16:58;9.38;;;6.38;;
42124;SDS011;27787;44.594;11.046;2023-06-22T10:19:42;12.20;;;6.22;;
42124;SDS011;27787;44.594;11.046;2023-06-22T10:22:27;17.52;;;6.65;;
42124;SDS011;27787;44.594;11.046;2023-06-22T10:25:11;13.17;;;7.50;;
42124;SDS011;27787;44.594;11.046;2023-06-22T10:27:57;12.55;;;6.97;;
42124;SDS011;27787;44.594;11.046;2023-06-22T10:30:41;17.92;;;6.80;;
42124;SDS011;27787;44.594;11.046;2023-06-22T10:33:25;17.80;;;6.22;;
42124;SDS011;27787;44.594;11.046;2023-06-22T10:36:10;14.00;;;7.27;;
42124;SDS011;27787;44.594;11.046;2023-06-22T10:38:54;18.80;;;6.65;;
42124;SDS011;27787;44.594;11.046;2023-06-22T10:41:39;12.68;;;7.72;;
42124;SDS011;27787;44.594;11.046;2023-06-22T10:44:24;17.45;;;6.90;;
42124;SDS011;27787;44.594;11.046;2023-06-22T10:47:08;12.35;;;7.10;;
42124;SDS011;27787;44.594;11.046;2023-06-22T10:49:52;15.45;;;7.75;;
42124;SDS011;27787;44.594;11.046;2023-06-22T10:52:36;11.40;;;6.88;;
42124;SDS011;27787;44.594;11.046;2023-06-22T10:55:21;15.00;;;7.72;;
42124;SDS011;27787;44.594;11.046;2023-06-22T10:58:05;10.48;;;7.18;;
42124;SDS011;27787;44.594;11.046;2023-06-22T11:00:50;12.82;;;7.18;;
42124;SDS011;27787;44.594;11.046;2023-06-22T11:03:34;12.60;;;7.05;;
42124;SDS011;27787;44.594;11.046;2023-06-22T11:06:17;23.30;;;7.40;;
42124;SDS011;27787;44.594;11.046;2023-06-22T11:09:02;17.63;;;6.85;;
42124;SDS011;27787;44.594;11.046;2023-06-22T11:11:47;13.68;;;6.70;;
42124;SDS011;27787;44.594;11.046;2023-06-22T11:14:33;11.57;;;6.65;;
42124;SDS011;27787;44.594;11.046;2023-06-22T11:17:17;10.97;;;6.57;;
42124;SDS011;27787;44.594;11.046;2023-06-22T11:20:02;13.27;;;6.03;;
42124;SDS011;27787;44.594;11.046;2023-06-22T11:22:53;17.10;;;6.40;;
42124;SDS011;27787;44.594;11.046;2023-06-22T11:25:37;10.55;;;6.50;;
42124;SDS011;27787;44.594;11.046;2023-06-22T11:28:22;14.00;;;6.55;;
42124;SDS011;27787;44.594;11.046;2023-06-22T11:31:06;13.40;;;6.70;;
42124;SDS011;27787;44.594;11.046;2023-06-22T11:33:51;18.77;;;7.18;;
42124;SDS011;27787;44.594;11.046;2023-06-22T11:36:35;18.55;;;6.97;;
42124;SDS011;27787;44.594;11.046;2023-06-22T11:39:20;15.77;;;6.47;;
42124;SDS011;27787;44.594;11.046;2023-06-22T11:42:04;8.40;;;6.30;;
42124;SDS011;27787;44.594;11.046;2023-06-22T11:44:49;11.63;;;6.38;;
42124;SDS011;27787;44.594;11.046;2023-06-22T11:47:33;13.35;;;6.45;;
42124;SDS011;27787;44.594;11.046;2023-06-22T11:50:17;9.50;;;6.22;;
42124;SDS011;27787;44.594;11.046;2023-06-22T11:53:02;17.17;;;6.38;;
42124;SDS011;27787;44.594;11.046;2023-06-22T11:55:47;8.95;;;6.85;;
42124;SDS011;27787;44.594;11.046;2023-06-22T11:58:31;10.40;;;5.68;;
42124;SDS011;27787;44.594;11.046;2023-06-22T12:01:16;13.55;;;6.88;;
42124;SDS011;27787;44.594;11.046;2023-06-22T12:04:00;10.82;;;6.07;;
42124;SDS011;27787;44.594;11.046;2023-06-22T12:06:44;15.50;;;5.38;;
42124;SDS011;27787;44.594;11.046;2023-06-22T12:09:29;14.30;;;6.45;;
42124;SDS011;27787;44.594;11.046;2023-06-22T12:12:13;15.35;;;6.38;;
42124;SDS011;27787;44.594;11.046;2023-06-22T12:14:57;13.70;;;6.00;;
42124;SDS011;27787;44.594;11.046;2023-06-22T12:17:41;21.30;;;6.20;;
42124;SDS011;27787;44.594;11.046;2023-06-22T12:20:26;9.50;;;5.80;;
42124;SDS011;27787;44.594;11.046;2023-06-22T12:23:10;12.97;;;6.40;;
42124;SDS011;27787;44.594;11.046;2023-06-22T12:25:54;11.65;;;7.15;;
42124;SDS011;27787;44.594;11.046;2023-06-22T12:28:38;11.40;;;6.30;;
42124;SDS011;27787;44.594;11.046;2023-06-22T12:31:22;11.80;;;6.63;;
42124;SDS011;27787;44.594;11.046;2023-06-22T12:34:06;9.50;;;6.30;;
42124;SDS011;27787;44.594;11.046;2023-06-22T12:36:50;14.33;;;6.53;;
42124;SDS011;27787;44.594;11.046;2023-06-22T12:39:34;11.63;;;5.43;;
42124;SDS011;27787;44.594;11.046;2023-06-22T12:42:18;15.13;;;5.68;;
42124;SDS011;27787;44.594;11.046;2023-06-22T12:45:03;12.20;;;5.85;;
42124;SDS011;27787;44.594;11.046;2023-06-22T12:47:48;15.43;;;5.25;;
42124;SDS011;27787;44.594;11.046;2023-06-22T12:50:33;14.00;;;5.90;;
42124;SDS011;27787;44.594;11.046;2023-06-22T12:53:18;12.82;;;5.90;;
42124;SDS011;27787;44.594;11.046;2023-06-22T12:56:07;9.45;;;5.07;;
42124;SDS011;27787;44.594;11.046;2023-06-22T12:58:51;14.57;;;5.70;;
42124;SDS011;27787;44.594;11.046;2023-06-22T13:01:35;7.20;;;5.05;;
42124;SDS011;27787;44.594;11.046;2023-06-22T13:04:20;8.13;;;5.03;;
42124;SDS011;27787;44.594;11.046;2023-06-22T13:07:05;27.75;;;5.65;;
42124;SDS011;27787;44.594;11.046;2023-06-22T13:09:49;12.13;;;5.60;;
42124;SDS011;27787;44.594;11.046;2023-06-22T13:12:37;9.82;;;5.53;;
42124;SDS011;27787;44.594;11.046;2023-06-22T13:15:21;15.07;;;5.63;;
42124;SDS011;27787;44.594;11.046;2023-06-22T13:18:05;12.03;;;5.50;;
42124;SDS011;27787;44.594;11.046;2023-06-22T13:20:50;8.90;;;5.72;;
42124;SDS011;27787;44.594;11.046;2023-06-22T13:23:33;11.55;;;5.45;;
42124;SDS011;27787;44.594;11.046;2023-06-22T13:26:18;10.88;;;5.63;;
42124;SDS011;27787;44.594;11.046;2023-06-22T13:29:02;13.32;;;5.93;;
42124;SDS011;27787;44.594;11.046;2023-06-22T13:34:30;14.55;;;5.50;;
42124;SDS011;27787;44.594;11.046;2023-06-22T13:37:15;17.05;;;5.50;;
42124;SDS011;27787;44.594;11.046;2023-06-22T13:39:59;8.15;;;4.75;;
42124;SDS011;27787;44.594;11.046;2023-06-22T13:42:43;15.30;;;5.57;;
42124;SDS011;27787;44.594;11.046;2023-06-22T13:45:27;8.52;;;5.50;;
42124;SDS011;27787;44.594;11.046;2023-06-22T13:48:11;14.38;;;5.68;;
42124;SDS011;27787;44.594;11.046;2023-06-22T13:50:55;13.55;;;5.18;;
42124;SDS011;27787;44.594;11.046;2023-06-22T13:53:39;10.63;;;5.10;;
42124;SDS011;27787;44.594;11.046;2023-06-22T13:56:24;14.80;;;6.10;;
42124;SDS011;27787;44.594;11.046;2023-06-22T13:59:08;7.88;;;5.30;;
42124;SDS011;27787;44.594;11.046;2023-06-22T14:01:55;7.15;;;5.30;;
42124;SDS011;27787;44.594;11.046;2023-06-22T14:04:40;15.57;;;4.80;;
42124;SDS011;27787;44.594;11.046;2023-06-22T14:07:24;8.77;;;5.25;;
42124;SDS011;27787;44.594;11.046;2023-06-22T14:10:09;13.00;;;5.70;;
42124;SDS011;27787;44.594;11.046;2023-06-22T14:12:53;12.57;;;5.50;;
42124;SDS011;27787;44.594;11.046;2023-06-22T14:15:37;9.02;;;5.93;;
42124;SDS011;27787;44.594;11.046;2023-06-22T14:18:22;9.13;;;4.95;;
42124;SDS011;27787;44.594;11.046;2023-06-22T14:21:07;12.95;;;6.10;;
42124;SDS011;27787;44.594;11.046;2023-06-22T14:23:51;14.90;;;5.40;;
42124;SDS011;27787;44.594;11.046;2023-06-22T14:26:36;14.23;;;5.13;;
42124;SDS011;27787;44.594;11.046;2023-06-22T14:29:20;18.02;;;5.97;;
42124;SDS011;27787;44.594;11.046;2023-06-22T14:32:05;21.95;;;5.93;;
42124;SDS011;27787;44.594;11.046;2023-06-22T14:34:50;10.10;;;5.80;;
42124;SDS011;27787;44.594;11.046;2023-06-22T14:37:34;14.20;;;6.05;;
42124;SDS011;27787;44.594;11.046;2023-06-22T14:40:18;9.18;;;5.22;;
42124;SDS011;27787;44.594;11.046;2023-06-22T14:43:03;12.13;;;5.75;;
42124;SDS011;27787;44.594;11.046;2023-06-22T14:45:47;11.55;;;5.55;;
42124;SDS011;27787;44.594;11.046;2023-06-22T14:48:35;10.10;;;5.38;;
42124;SDS011;27787;44.594;11.046;2023-06-22T14:51:19;9.20;;;5.38;;
42124;SDS011;27787;44.594;11.046;2023-06-22T14:56:48;10.88;;;5.07;;
42124;SDS011;27787;44.594;11.046;2023-06-22T14:59:32;16.98;;;5.97;;
42124;SDS011;27787;44.594;11.046;2023-06-22T15:02:16;9.13;;;4.80;;
42124;SDS011;27787;44.594;11.046;2023-06-22T15:05:02;12.30;;;5.15;;
42124;SDS011;27787;44.594;11.046;2023-06-22T15:07:46;11.30;;;6.05;;
42124;SDS011;27787;44.594;11.046;2023-06-22T15:10:30;10.55;;;5.40;;
42124;SDS011;27787;44.594;11.046;2023-06-22T15:13:15;11.45;;;5.07;;
42124;SDS011;27787;44.594;11.046;2023-06-22T15:16:04;12.32;;;4.93;;
42124;SDS011;27787;44.594;11.046;2023-06-22T15:18:48;8.30;;;5.28;;
42124;SDS011;27787;44.594;11.046;2023-06-22T15:21:32;10.38;;;5.05;;
42124;SDS011;27787;44.594;11.046;2023-06-22T15:24:17;10.35;;;5.13;;
42124;SDS011;27787;44.594;11.046;2023-06-22T15:27:01;16.83;;;6.57;;
42124;SDS011;27787;44.594;11.046;2023-06-22T15:29:45;11.57;;;6.03;;
42124;SDS011;27787;44.594;11.046;2023-06-22T15:32:29;11.93;;;6.60;;
42124;SDS011;27787;44.594;11.046;2023-06-22T15:35:13;9.15;;;6.68;;
42124;SDS011;27787;44.594;11.046;2023-06-22T15:38:00;13.20;;;5.95;;
42124;SDS011;27787;44.594;11.046;2023-06-22T15:40:45;11.40;;;6.30;;
42124;SDS011;27787;44.594;11.046;2023-06-22T15:43:29;13.93;;;5.10;;
42124;SDS011;27787;44.594;11.046;2023-06-22T15:46:14;10.68;;;4.97;;
42124;SDS011;27787;44.594;11.046;2023-06-22T15:49:01;9.65;;;4.88;;
42124;SDS011;27787;44.594;11.046;2023-06-22T15:51:46;12.93;;;6.22;;
42124;SDS011;27787;44.594;11.046;2023-06-22T15:54:30;8.45;;;6.05;;
42124;SDS011;27787;44.594;11.046;2023-06-22T15:57:14;12.77;;;6.40;;
42124;SDS011;27787;44.594;11.046;2023-06-22T15:59:59;10.68;;;6.05;;
42124;SDS011;27787;44.594;11.046;2023-06-22T16:02:43;10.70;;;4.30;;
42124;SDS011;27787;44.594;11.046;2023-06-22T16:05:28;8.20;;;4.28;;
42124;SDS011;27787;44.594;11.046;2023-06-22T16:08:12;6.53;;;4.23;;
42124;SDS011;27787;44.594;11.046;2023-06-22T16:10:57;8.80;;;4.28;;
42124;SDS011;27787;44.594;11.046;2023-06-22T16:13:41;5.05;;;3.70;;
42124;SDS011;27787;44.594;11.046;2023-06-22T16:16:25;8.30;;;4.15;;
42124;SDS011;27787;44.594;11.046;2023-06-22T16:19:09;6.28;;;3.50;;
42124;SDS011;27787;44.594;11.046;2023-06-22T16:21:54;7.03;;;3.55;;
42124;SDS011;27787;44.594;11.046;2023-06-22T16:24:39;9.48;;;4.07;;
42124;SDS011;27787;44.594;11.046;2023-06-22T16:27:23;9.20;;;4.20;;
42124;SDS011;27787;44.594;11.046;2023-06-22T16:30:13;14.93;;;4.00;;
42124;SDS011;27787;44.594;11.046;2023-06-22T16:32:57;7.13;;;3.75;;
42124;SDS011;27787;44.594;11.046;2023-06-22T16:35:42;9.45;;;3.67;;
42124;SDS011;27787;44.594;11.046;2023-06-22T16:38:27;8.98;;;3.97;;
42124;SDS011;27787;44.594;11.046;2023-06-22T16:41:13;8.95;;;4.10;;
42124;SDS011;27787;44.594;11.046;2023-06-22T16:43:58;15.30;;;4.20;;
42124;SDS011;27787;44.594;11.046;2023-06-22T16:46:48;13.93;;;3.63;;